Time;durP1;ratioP1;P1;durP2;ratioP2;P2;SDS_P1;SDS_P2;PMS_P1;PMS_P2;Temp;Humidity;BMP_temperature;BMP_pressure;BME280_temperature;BME280_humidity;BME280_pressure;Samples;Min_cycle;Max_cycle;Signal;HPM_P1;HPM_P2
2022/08/01 00:00:23;;;;;;;0.50;0.50;;;20.90;99.90;;;;;;5090394;28;20192;-68
2022/08/01 00:03:11;;;;;;;0.88;0.88;;;20.90;99.90;;;;;;5090653;28;20199;-67
2022/08/01 00:05:59;;;;;;;0.40;0.40;;;20.90;99.90;;;;;;5091261;28;20660;-69
2022/08/01 00:08:47;;;;;;;0.40;0.40;;;20.90;99.90;;;;;;5091322;28;20231;-68
2022/08/01 00:11:35;;;;;;;0.40;0.40;;;20.90;99.90;;;;;;5090287;28;20265;-67
2022/08/01 00:14:24;;;;;;;0.50;0.50;;;20.90;99.90;;;;;;5090961;28;20279;-69
2022/08/01 00:17:19;;;;;;;0.50;0.50;;;20.90;99.90;;;;;;5091558;28;20228;-69
2022/08/01 00:20:10;;;;;;;0.40;0.40;;;20.80;99.90;;;;;;5091355;28;20615;-67
2022/08/01 00:22:58;;;;;;;0.40;0.40;;;20.80;99.90;;;;;;5090404;28;20544;-64
2022/08/01 00:25:46;;;;;;;0.40;0.40;;;20.80;99.90;;;;;;5094382;28;20200;-64
2022/08/01 00:28:34;;;;;;;0.40;0.40;;;20.70;99.90;;;;;;5094303;28;20353;-67
2022/08/01 00:31:24;;;;;;;0.40;0.40;;;20.60;99.90;;;;;;5094490;28;20243;-67
2022/08/01 00:34:12;;;;;;;0.40;0.40;;;20.60;99.90;;;;;;5094814;28;20249;-66
2022/08/01 00:37:00;;;;;;;0.40;0.40;;;20.50;99.90;;;;;;5094447;28;20196;-65
2022/08/01 00:39:48;;;;;;;0.40;0.40;;;20.50;99.90;;;;;;5094711;28;20246;-69
2022/08/01 00:42:36;;;;;;;0.90;0.90;;;20.40;99.90;;;;;;5094812;28;20219;-69
2022/08/01 00:45:30;;;;;;;0.40;0.40;;;20.40;99.90;;;;;;5094038;28;20200;-69
2022/08/01 00:48:19;;;;;;;0.75;0.73;;;20.40;99.90;;;;;;5094664;28;20204;-66
2022/08/01 00:51:08;;;;;;;0.40;0.40;;;20.40;99.90;;;;;;5093950;28;20219;-69
2022/08/01 00:53:56;;;;;;;0.50;0.50;;;20.50;99.90;;;;;;5093966;28;20664;-66
2022/08/01 00:56:45;;;;;;;0.60;0.60;;;20.50;99.90;;;;;;5088943;28;20212;-67
2022/08/01 00:59:35;;;;;;;2.25;2.05;;;20.50;99.90;;;;;;5074371;28;20282;-66
2022/08/01 01:02:23;;;;;;;0.40;0.40;;;20.50;99.90;;;;;;5074062;28;20223;-66
2022/08/01 01:05:12;;;;;;;0.75;0.75;;;21.30;99.90;;;;;;5085060;28;20204;-67
2022/08/01 01:08:04;;;;;;;1.05;1.05;;;20.40;99.90;;;;;;5085941;28;20196;-66
2022/08/01 01:10:58;;;;;;;0.40;0.40;;;20.40;99.90;;;;;;5072874;28;20217;-67
2022/08/01 01:13:53;;;;;;;0.50;0.50;;;20.20;99.90;;;;;;5074221;28;20212;-69
2022/08/01 01:16:43;;;;;;;0.40;0.40;;;20.10;99.90;;;;;;5074830;28;20673;-65
2022/08/01 01:19:33;;;;;;;0.50;0.50;;;20.10;99.90;;;;;;5074052;28;20205;-70
2022/08/01 01:22:31;;;;;;;0.50;0.50;;;20.00;99.90;;;;;;5073176;28;20598;-69
2022/08/01 01:25:55;;;;;;;0.40;0.40;;;19.90;99.90;;;;;;5073124;28;20201;-67
2022/08/01 01:29:01;;;;;;;0.70;0.60;;;19.80;99.90;;;;;;5074258;28;20196;-66
2022/08/01 01:31:53;;;;;;;0.52;0.52;;;19.80;99.90;;;;;;5074481;28;20217;-69
2022/08/01 01:34:46;;;;;;;0.55;0.55;;;19.80;99.90;;;;;;5073809;28;20215;-67
2022/08/01 01:37:36;;;;;;;0.40;0.40;;;19.90;99.90;;;;;;5074152;28;20201;-67
2022/08/01 01:40:26;;;;;;;0.52;0.52;;;19.70;99.90;;;;;;5072993;28;20258;-67
2022/08/01 01:43:16;;;;;;;0.40;0.40;;;19.70;99.90;;;;;;5073880;28;20203;-66
2022/08/01 01:46:07;;;;;;;0.40;0.40;;;19.70;99.90;;;;;;5072881;28;20232;-66
2022/08/01 01:48:57;;;;;;;0.45;0.45;;;19.70;99.90;;;;;;5073621;28;20203;-69
2022/08/01 01:51:47;;;;;;;0.68;0.68;;;19.60;99.90;;;;;;5073821;28;20299;-65
2022/08/01 01:54:51;;;;;;;0.50;0.50;;;19.50;99.90;;;;;;5073861;28;20188;-65
2022/08/01 01:57:42;;;;;;;0.40;0.40;;;19.50;99.90;;;;;;5072613;28;20219;-68
2022/08/01 02:00:31;;;;;;;0.50;0.50;;;19.40;99.90;;;;;;5070974;28;20703;-67
2022/08/01 02:03:22;;;;;;;0.40;0.40;;;19.40;99.90;;;;;;5071506;28;20700;-67
2022/08/01 02:06:14;;;;;;;0.40;0.40;;;19.40;99.90;;;;;;5071200;28;20204;-66
2022/08/01 02:09:02;;;;;;;0.40;0.40;;;19.40;99.90;;;;;;5072229;28;20731;-68
2022/08/01 02:11:51;;;;;;;1.00;1.00;;;19.30;99.90;;;;;;5071808;28;20232;-68
2022/08/01 02:14:56;;;;;;;0.60;0.60;;;19.50;99.90;;;;;;5073445;28;20222;-67
2022/08/01 02:17:49;;;;;;;0.40;0.40;;;19.40;99.90;;;;;;5070834;28;20200;-67
2022/08/01 02:20:39;;;;;;;0.82;0.82;;;19.50;99.90;;;;;;5072768;28;20220;-68
2022/08/01 02:23:31;;;;;;;0.40;0.40;;;19.60;99.90;;;;;;5070935;28;20678;-66
2022/08/01 02:26:23;;;;;;;0.40;0.40;;;19.60;99.90;;;;;;5073008;28;20228;-68
2022/08/01 02:29:15;;;;;;;0.50;0.50;;;19.80;99.90;;;;;;5072300;28;20261;-66
2022/08/01 02:32:06;;;;;;;0.50;0.50;;;19.90;99.90;;;;;;5070368;28;20224;-65
2022/08/01 02:34:58;;;;;;;0.40;0.40;;;19.80;99.90;;;;;;5071063;28;20200;-68
2022/08/01 02:37:50;;;;;;;0.50;0.50;;;19.90;99.90;;;;;;5071804;28;20696;-67
2022/08/01 02:40:42;;;;;;;0.40;0.40;;;20.00;99.90;;;;;;5071112;28;20854;-67
2022/08/01 02:43:33;;;;;;;2.65;0.90;;;19.80;99.90;;;;;;5070610;28;20205;-66
2022/08/01 02:46:26;;;;;;;0.40;0.40;;;20.00;99.90;;;;;;5070669;28;20204;-67
2022/08/01 02:49:16;;;;;;;0.40;0.40;;;19.90;99.90;;;;;;5070252;28;20207;-67
2022/08/01 02:52:08;;;;;;;0.40;0.40;;;19.90;99.90;;;;;;5072437;28;20217;-67
2022/08/01 02:54:59;;;;;;;0.73;0.73;;;19.90;99.90;;;;;;5071032;28;20204;-66
2022/08/01 02:57:50;;;;;;;0.55;0.55;;;19.80;99.90;;;;;;5085833;28;20192;-66
2022/08/01 03:00:48;;;;;;;0.40;0.40;;;19.90;99.90;;;;;;5091324;28;20200;-66
2022/08/01 03:03:37;;;;;;;0.43;0.43;;;19.90;99.90;;;;;;5087025;28;20196;-64
2022/08/01 03:06:26;;;;;;;0.50;0.50;;;19.90;99.90;;;;;;5071753;28;20945;-67
2022/08/01 03:09:15;;;;;;;0.50;0.50;;;19.80;99.90;;;;;;5072319;28;20207;-67
2022/08/01 03:12:14;;;;;;;0.50;0.50;;;19.70;99.90;;;;;;5070123;28;20232;-64
2022/08/01 03:15:04;;;;;;;0.40;0.40;;;19.60;99.90;;;;;;5071776;28;20642;-68
2022/08/01 03:17:55;;;;;;;0.40;0.40;;;19.50;99.90;;;;;;5071032;28;20201;-66
2022/08/01 03:20:45;;;;;;;1.02;1.02;;;19.50;99.90;;;;;;5071530;28;20282;-69
2022/08/01 03:23:34;;;;;;;0.88;0.88;;;19.60;99.90;;;;;;5071477;28;20211;-66
2022/08/01 03:26:28;;;;;;;0.40;0.40;;;19.60;99.90;;;;;;5070364;28;20754;-67
2022/08/01 03:29:22;;;;;;;0.50;0.50;;;19.70;99.90;;;;;;5070018;28;20205;-68
2022/08/01 03:32:11;;;;;;;0.95;0.90;;;19.70;99.90;;;;;;5071266;28;20224;-65
2022/08/01 03:35:00;;;;;;;0.60;0.60;;;19.80;99.90;;;;;;5071797;28;20220;-67
2022/08/01 03:37:52;;;;;;;0.40;0.40;;;20.00;99.90;;;;;;5070221;28;20200;-67
2022/08/01 03:41:10;;;;;;;0.40;0.40;;;20.00;99.90;;;;;;5070201;28;20769;-65
2022/08/01 03:44:02;;;;;;;0.50;0.50;;;19.90;99.90;;;;;;5071876;28;20197;-66
2022/08/01 03:46:58;;;;;;;0.40;0.40;;;19.90;99.90;;;;;;5071194;28;20197;-67
2022/08/01 03:49:48;;;;;;;2.25;1.10;;;20.10;99.90;;;;;;5069646;28;20229;-65
2022/08/01 03:52:39;;;;;;;0.47;0.47;;;20.00;99.90;;;;;;5069798;28;20227;-69
2022/08/01 03:55:28;;;;;;;0.47;0.47;;;20.00;99.90;;;;;;5071705;28;20201;-68
2022/08/01 03:58:16;;;;;;;0.40;0.40;;;19.90;99.90;;;;;;5090067;28;20203;-70
2022/08/01 04:01:06;;;;;;;2.28;1.67;;;20.00;99.90;;;;;;5094736;28;20630;-67
2022/08/01 04:04:05;;;;;;;1.95;1.85;;;20.00;99.90;;;;;;5094304;28;20223;-67
2022/08/01 04:06:54;;;;;;;0.95;0.95;;;19.90;99.90;;;;;;5094936;28;20223;-67
2022/08/01 04:09:42;;;;;;;0.55;0.55;;;19.80;99.90;;;;;;5095069;28;20208;-66
2022/08/01 04:12:30;;;;;;;0.50;0.50;;;19.80;99.90;;;;;;5128745;22;20240;-68
2022/08/01 04:15:20;;;;;;;1.52;0.93;;;19.70;99.90;;;;;;5114231;28;20238;-67
2022/08/01 04:18:08;;;;;;;1.67;1.58;;;19.70;99.90;;;;;;5116307;28;20192;-68
2022/08/01 04:20:57;;;;;;;1.33;0.93;;;19.80;99.90;;;;;;5114043;28;20196;-67
2022/08/01 04:23:48;;;;;;;0.60;0.60;;;19.70;99.90;;;;;;5097654;28;20214;-68
2022/08/01 04:26:42;;;;;;;1.08;0.98;;;19.80;99.90;;;;;;5097513;28;20223;-67
2022/08/01 04:29:32;;;;;;;5.45;2.92;;;19.80;99.90;;;;;;5096403;28;20313;-67
2022/08/01 04:32:21;;;;;;;1.25;1.15;;;19.80;99.90;;;;;;5099320;28;20727;-67
2022/08/01 04:35:13;;;;;;;0.40;0.40;;;19.80;99.90;;;;;;5096636;28;20724;-67
2022/08/01 04:38:27;;;;;;;1.02;0.70;;;19.80;99.90;;;;;;5098391;28;20241;-67
2022/08/01 04:41:17;;;;;;;1.55;1.45;;;20.00;99.90;;;;;;5100015;28;20224;-67
2022/08/01 04:44:06;;;;;;;0.73;0.73;;;19.90;99.90;;;;;;5099342;28;20204;-68
2022/08/01 04:46:56;;;;;;;0.50;0.50;;;19.80;99.90;;;;;;5101608;28;20208;-67
2022/08/01 04:49:45;;;;;;;0.40;0.40;;;19.90;99.90;;;;;;5096130;28;20212;-68
2022/08/01 04:52:37;;;;;;;0.50;0.50;;;20.10;99.90;;;;;;5096783;28;20223;-67
2022/08/01 04:55:29;;;;;;;0.40;0.40;;;20.00;99.90;;;;;;5097170;28;20721;-67
2022/08/01 04:58:17;;;;;;;0.47;0.47;;;20.10;99.90;;;;;;5095853;28;20196;-67
2022/08/01 05:01:06;;;;;;;0.88;0.88;;;20.20;99.90;;;;;;5094951;28;20203;-67
2022/08/01 05:03:54;;;;;;;0.50;0.50;;;20.20;99.90;;;;;;5095927;28;20204;-67
2022/08/01 05:06:42;;;;;;;0.50;0.50;;;20.20;99.90;;;;;;5095493;28;20702;-68
2022/08/01 05:09:30;;;;;;;0.40;0.40;;;20.40;99.90;;;;;;5095558;28;20620;-67
2022/08/01 05:12:20;;;;;;;0.40;0.40;;;20.40;99.90;;;;;;5095746;28;20235;-67
2022/08/01 05:15:09;;;;;;;3.03;1.60;;;20.60;99.90;;;;;;5095846;28;20225;-67
2022/08/01 05:18:02;;;;;;;0.50;0.50;;;20.60;99.90;;;;;;5096960;28;20200;-67
2022/08/01 05:20:54;;;;;;;0.40;0.40;;;20.50;99.90;;;;;;5095667;28;20196;-67
2022/08/01 05:23:42;;;;;;;0.80;0.80;;;20.60;99.90;;;;;;5095762;28;20242;-67
2022/08/01 05:26:30;;;;;;;0.40;0.40;;;20.70;99.90;;;;;;5095849;28;20257;-68
2022/08/01 05:29:20;;;;;;;0.70;0.70;;;20.70;99.90;;;;;;5095874;28;20706;-67
2022/08/01 05:32:09;;;;;;;1.60;0.95;;;20.70;99.90;;;;;;5095946;28;20216;-67
2022/08/01 05:34:57;;;;;;;1.15;0.85;;;20.70;99.90;;;;;;5098763;28;20590;-67
2022/08/01 05:37:45;;;;;;;1.23;0.85;;;20.60;99.90;;;;;;5105183;28;20716;-68
2022/08/01 05:40:33;;;;;;;0.75;0.50;;;20.50;99.90;;;;;;5103244;28;20572;-68
2022/08/01 05:43:21;;;;;;;1.00;0.90;;;20.40;99.90;;;;;;5101417;28;20222;-68
2022/08/01 05:46:16;;;;;;;2.47;0.70;;;20.50;99.90;;;;;;5102766;28;20196;-68
2022/08/01 05:49:05;;;;;;;0.43;0.43;;;20.50;99.90;;;;;;5099440;28;20279;-69
2022/08/01 05:51:53;;;;;;;0.40;0.40;;;20.90;99.90;;;;;;5096608;28;20224;-68
2022/08/01 05:54:42;;;;;;;0.70;0.70;;;20.90;99.90;;;;;;5094606;28;20211;-68
2022/08/01 05:57:30;;;;;;;0.75;0.75;;;21.00;99.90;;;;;;5083192;28;20246;-68
2022/08/01 06:00:18;;;;;;;0.70;0.70;;;21.00;99.90;;;;;;5075686;28;20197;-67
2022/08/01 06:03:07;;;;;;;0.40;0.40;;;20.70;99.90;;;;;;5074133;28;20220;-67
2022/08/01 06:05:55;;;;;;;0.40;0.40;;;20.30;99.90;;;;;;5075126;28;20278;-68
2022/08/01 06:08:43;;;;;;;0.57;0.57;;;20.20;99.90;;;;;;5074060;28;20212;-68
2022/08/01 06:11:31;;;;;;;2.72;0.82;;;20.10;99.90;;;;;;5074240;28;20229;-67
2022/08/01 06:14:20;;;;;;;0.40;0.40;;;20.20;99.90;;;;;;5073867;28;20193;-67
2022/08/01 06:17:08;;;;;;;1.75;1.65;;;20.40;99.90;;;;;;5075196;28;20204;-68
2022/08/01 06:19:57;;;;;;;2.58;1.08;;;20.40;99.90;;;;;;5073363;28;20196;-67
2022/08/01 06:22:45;;;;;;;2.05;1.25;;;20.40;99.90;;;;;;5073809;28;20231;-67
2022/08/01 06:25:39;;;;;;;0.50;0.50;;;20.40;99.90;;;;;;5074864;28;20189;-69
2022/08/01 06:28:27;;;;;;;0.57;0.57;;;20.40;99.90;;;;;;5073671;28;20201;-69
2022/08/01 06:31:15;;;;;;;0.50;0.50;;;20.30;99.90;;;;;;5073675;28;20224;-66
2022/08/01 06:34:03;;;;;;;0.40;0.40;;;20.30;99.90;;;;;;5075226;28;20696;-67
2022/08/01 06:36:53;;;;;;;0.40;0.40;;;20.30;99.90;;;;;;5072684;28;20197;-66
2022/08/01 06:39:41;;;;;;;0.40;0.40;;;20.30;99.90;;;;;;5073880;28;20197;-67
2022/08/01 06:42:31;;;;;;;0.40;0.40;;;20.40;99.90;;;;;;5074245;28;20220;-67
2022/08/01 06:45:22;;;;;;;0.40;0.40;;;20.40;99.90;;;;;;5075800;28;20215;-68
2022/08/01 06:48:10;;;;;;;0.40;0.40;;;20.60;99.90;;;;;;5073077;28;20260;-67
2022/08/01 06:51:08;;;;;;;3.63;1.23;;;21.00;99.90;;;;;;5074619;28;20203;-66
2022/08/01 06:53:57;;;;;;;0.40;0.40;;;21.00;99.90;;;;;;5073539;28;20204;-68
2022/08/01 06:56:45;;;;;;;1.05;1.05;;;21.00;99.90;;;;;;5080781;28;20216;-68
2022/08/01 06:59:34;;;;;;;1.67;1.45;;;21.10;99.90;;;;;;5093719;28;20200;-68
2022/08/01 07:02:22;;;;;;;1.83;1.73;;;21.10;99.90;;;;;;5094103;28;20254;-68
2022/08/01 07:05:10;;;;;;;0.40;0.40;;;21.10;99.90;;;;;;5093082;28;20668;-67
2022/08/01 07:07:59;;;;;;;0.50;0.50;;;21.10;99.90;;;;;;5093632;28;20683;-68
2022/08/01 07:10:48;;;;;;;0.40;0.40;;;21.50;99.90;;;;;;5092793;28;20196;-68
2022/08/01 07:13:36;;;;;;;0.57;0.57;;;21.80;99.90;;;;;;5094802;28;20469;-68
2022/08/01 07:16:31;;;;;;;0.50;0.50;;;21.80;99.90;;;;;;5093311;28;20220;-68
2022/08/01 07:19:19;;;;;;;0.47;0.47;;;21.90;99.90;;;;;;5093777;28;20196;-67
2022/08/01 07:22:07;;;;;;;0.40;0.40;;;21.80;99.90;;;;;;5092992;28;20216;-67
2022/08/01 07:24:57;;;;;;;0.50;0.50;;;21.90;99.90;;;;;;5094571;28;20629;-68
2022/08/01 07:27:47;;;;;;;0.40;0.40;;;21.80;99.90;;;;;;5094607;28;20672;-68
2022/08/01 07:30:35;;;;;;;0.80;0.80;;;21.70;99.90;;;;;;5093902;28;20678;-68
2022/08/01 07:33:24;;;;;;;0.63;0.63;;;21.40;99.90;;;;;;5093996;28;20200;-68
2022/08/01 07:36:12;;;;;;;0.40;0.40;;;21.10;99.90;;;;;;5094131;28;20257;-68
2022/08/01 07:39:00;;;;;;;0.40;0.40;;;20.70;99.90;;;;;;5093225;28;20200;-67
2022/08/01 07:41:48;;;;;;;0.50;0.50;;;20.50;99.90;;;;;;5093112;28;20273;-68
2022/08/01 07:44:56;;;;;;;0.50;0.50;;;20.30;99.90;;;;;;5094815;28;20183;-68
2022/08/01 07:47:45;;;;;;;5.20;1.23;;;20.40;99.90;;;;;;5094084;28;20200;-68
2022/08/01 07:50:33;;;;;;;0.40;0.40;;;20.50;99.90;;;;;;5093703;28;20191;-68
2022/08/01 07:53:21;;;;;;;0.40;0.40;;;20.90;99.90;;;;;;5096561;28;20623;-67
2022/08/01 07:56:10;;;;;;;0.55;0.52;;;21.20;99.90;;;;;;5081853;28;20231;-68
2022/08/01 07:58:58;;;;;;;1.35;1.20;;;21.70;99.90;;;;;;5095958;28;20200;-68
2022/08/01 08:01:47;;;;;;;1.45;1.02;;;21.90;99.90;;;;;;5092057;28;20225;-69
2022/08/01 08:04:35;;;;;;;0.40;0.40;;;22.00;99.90;;;;;;5093363;28;20203;-69
2022/08/01 08:07:23;;;;;;;0.70;0.60;;;22.20;99.90;;;;;;5094003;28;20215;-69
2022/08/01 08:10:12;;;;;;;0.40;0.40;;;22.50;99.90;;;;;;5092731;28;20253;-70
2022/08/01 08:13:01;;;;;;;0.73;0.50;;;22.40;99.90;;;;;;5093026;28;20281;-68
2022/08/01 08:15:49;;;;;;;0.50;0.50;;;22.20;99.90;;;;;;5092404;28;20222;-68
2022/08/01 08:18:39;;;;;;;0.70;0.70;;;22.00;99.90;;;;;;5092855;28;20697;-68
2022/08/01 08:21:28;;;;;;;0.50;0.50;;;21.70;99.90;;;;;;5077433;28;20688;-68
2022/08/01 08:24:23;;;;;;;0.50;0.50;;;21.50;99.90;;;;;;5071450;28;20193;-68
2022/08/01 08:27:14;;;;;;;0.50;0.50;;;21.40;99.90;;;;;;5073137;28;20200;-68
2022/08/01 08:30:02;;;;;;;0.93;0.93;;;21.50;99.90;;;;;;5077813;28;20200;-67
2022/08/01 08:32:50;;;;;;;0.75;0.50;;;21.60;99.90;;;;;;5092441;28;20226;-68
2022/08/01 08:35:41;;;;;;;0.50;0.50;;;21.60;99.90;;;;;;5091815;28;20223;-70
2022/08/01 08:38:41;;;;;;;0.40;0.40;;;21.70;99.90;;;;;;5065189;28;20482;-69
2022/08/01 08:41:30;;;;;;;0.60;0.60;;;21.50;99.90;;;;;;5073156;28;20245;-68
2022/08/01 08:44:25;;;;;;;0.50;0.50;;;21.60;99.90;;;;;;5071762;28;20204;-69
2022/08/01 08:47:15;;;;;;;0.40;0.40;;;21.60;99.90;;;;;;5077350;28;20205;-69
2022/08/01 08:50:09;;;;;;;0.63;0.60;;;21.60;99.90;;;;;;5076148;28;20696;-68
2022/08/01 08:53:01;;;;;;;3.35;1.05;;;21.80;99.90;;;;;;5077166;28;20217;-68
2022/08/01 08:55:56;;;;;;;0.40;0.40;;;22.00;99.90;;;;;;5083274;28;20680;-69
2022/08/01 08:58:45;;;;;;;0.40;0.40;;;22.30;99.90;;;;;;5081476;28;20219;-68
2022/08/01 09:01:34;;;;;;;0.95;0.95;;;22.60;99.90;;;;;;5080346;28;20700;-69
2022/08/01 09:04:23;;;;;;;0.52;0.52;;;23.00;99.90;;;;;;5075529;28;20284;-68
2022/08/01 09:07:14;;;;;;;0.60;0.60;;;23.00;99.90;;;;;;5076014;28;20283;-69
2022/08/01 09:10:04;;;;;;;0.40;0.40;;;22.80;99.90;;;;;;5083207;28;20239;-68
2022/08/01 09:13:10;;;;;;;0.40;0.40;;;22.60;99.90;;;;;;5086903;28;20228;-68
2022/08/01 09:15:58;;;;;;;1.85;1.48;;;22.50;99.90;;;;;;5096297;28;20209;-68
2022/08/01 09:18:46;;;;;;;0.63;0.52;;;22.40;99.90;;;;;;5096662;28;20207;-68
2022/08/01 09:21:55;;;;;;;0.50;0.50;;;22.30;99.90;;;;;;5095895;28;20245;-68
2022/08/01 09:24:59;;;;;;;0.40;0.40;;;22.30;99.90;;;;;;5096965;28;20207;-68
2022/08/01 09:28:02;;;;;;;0.50;0.50;;;22.20;99.90;;;;;;5097642;28;20191;-68
2022/08/01 09:30:50;;;;;;;0.52;0.52;;;22.30;99.90;;;;;;5079588;28;20180;-68
2022/08/01 09:33:50;;;;;;;1.08;1.02;;;22.50;99.90;;;;;;5081259;28;20208;-68
2022/08/01 09:36:50;;;;;;;0.40;0.40;;;23.10;99.90;;;;;;5075052;28;20295;-68
2022/08/01 09:39:43;;;;;;;0.40;0.40;;;23.50;99.90;;;;;;5076272;28;20246;-68
2022/08/01 09:42:31;;;;;;;0.55;0.55;;;23.90;99.90;;;;;;5075578;28;20239;-67
2022/08/01 09:45:36;;;;;;;0.40;0.40;;;24.10;99.90;;;;;;5075717;28;20760;-68
2022/08/01 09:48:32;;;;;;;0.82;0.82;;;24.20;99.90;;;;;;5075098;28;20241;-68
2022/08/01 09:51:29;;;;;;;0.75;0.50;;;24.20;99.90;;;;;;5074788;28;20212;-68
2022/08/01 09:54:38;;;;;;;0.98;0.88;;;24.20;99.90;;;;;;5074161;28;20205;-67
2022/08/01 09:57:27;;;;;;;0.50;0.50;;;24.40;99.90;;;;;;5075768;28;20217;-69
2022/08/01 10:00:18;;;;;;;0.40;0.40;;;24.40;99.90;;;;;;5074812;28;20207;-67
2022/08/01 10:03:29;;;;;;;0.40;0.40;;;24.20;99.90;;;;;;5075617;28;20270;-68
2022/08/01 10:06:21;;;;;;;1.00;1.00;;;23.90;99.90;;;;;;5090068;28;20259;-69
2022/08/01 10:09:13;;;;;;;0.47;0.40;;;23.60;99.90;;;;;;5093956;28;20706;-69
2022/08/01 10:12:02;;;;;;;0.50;0.50;;;23.00;99.90;;;;;;5115920;22;20270;-67
2022/08/01 10:14:51;;;;;;;0.47;0.47;;;23.00;99.90;;;;;;5091251;28;20196;-66
2022/08/01 10:17:41;;;;;;;0.40;0.40;;;22.90;99.90;;;;;;5092225;28;20220;-66
2022/08/01 10:20:40;;;;;;;0.40;0.40;;;23.10;99.90;;;;;;5095418;28;20204;-65
2022/08/01 10:23:31;;;;;;;0.60;0.60;;;23.30;99.90;;;;;;5096900;28;20224;-65
2022/08/01 10:26:29;;;;;;;0.40;0.40;;;23.60;99.90;;;;;;5094081;28;20196;-66
2022/08/01 10:29:20;;;;;;;0.50;0.50;;;23.60;99.90;;;;;;5092519;28;20697;-64
2022/08/01 10:32:28;;;;;;;0.60;0.60;;;23.90;99.90;;;;;;5093600;28;20715;-64
2022/08/01 10:35:17;;;;;;;0.85;0.85;;;24.00;99.90;;;;;;5093339;28;20274;-64
2022/08/01 10:38:28;;;;;;;0.70;0.70;;;24.20;99.90;;;;;;5093257;28;20227;-64
2022/08/01 10:41:20;;;;;;;1.30;1.13;;;24.30;99.90;;;;;;5094702;28;20206;-67
2022/08/01 10:44:09;;;;;;;0.50;0.50;;;23.80;99.90;;;;;;5097093;28;20211;-65
2022/08/01 10:47:03;;;;;;;0.60;0.60;;;23.50;99.90;;;;;;5097124;28;20196;-65
2022/08/01 10:50:03;;;;;;;0.52;0.52;;;23.20;99.90;;;;;;5096616;28;20215;-65
2022/08/01 10:53:11;;;;;;;0.40;0.40;;;23.00;99.90;;;;;;5093563;28;20216;-65
2022/08/01 10:56:09;;;;;;;0.40;0.40;;;22.70;99.90;;;;;;5095709;28;20207;-65
2022/08/01 10:59:03;;;;;;;0.40;0.40;;;22.70;99.90;;;;;;5095058;28;20202;-66
2022/08/01 11:01:59;;;;;;;0.60;0.60;;;22.70;99.90;;;;;;5091747;28;20305;-65
2022/08/01 11:04:56;;;;;;;0.60;0.52;;;22.60;99.90;;;;;;5091645;28;20203;-65
2022/08/01 11:07:49;;;;;;;0.50;0.50;;;22.50;99.90;;;;;;5090916;28;20253;-65
2022/08/01 11:10:39;;;;;;;0.50;0.50;;;22.30;99.90;;;;;;5091024;28;20684;-64
2022/08/01 11:14:01;;;;;;;0.40;0.40;;;22.20;99.90;;;;;;5092965;28;20708;-66
2022/08/01 11:16:50;;;;;;;0.40;0.40;;;22.10;99.90;;;;;;5090516;28;20218;-66
2022/08/01 11:20:05;;;;;;;0.50;0.50;;;22.20;99.90;;;;;;5091031;28;20199;-65
2022/08/01 11:23:27;;;;;;;1.10;1.10;;;22.60;99.90;;;;;;5091181;28;20708;-66
2022/08/01 11:26:17;;;;;;;0.40;0.40;;;23.00;99.90;;;;;;5092337;28;20202;-64
2022/08/01 11:29:18;;;;;;;0.85;0.85;;;23.60;99.90;;;;;;5093233;28;20187;-65
2022/08/01 11:32:26;;;;;;;0.40;0.40;;;24.10;99.90;;;;;;5092335;28;20349;-64
2022/08/01 11:35:14;;;;;;;0.50;0.50;;;24.50;99.90;;;;;;5092966;28;20200;-64
2022/08/01 11:38:27;;;;;;;0.40;0.40;;;24.70;99.90;;;;;;5092094;28;20226;-65
2022/08/01 11:41:19;;;;;;;0.40;0.40;;;24.40;99.90;;;;;;5091871;28;20226;-64
2022/08/01 11:44:29;;;;;;;0.80;0.80;;;24.30;99.90;;;;;;5092051;28;20192;-64
2022/08/01 11:47:18;;;;;;;0.52;0.52;;;24.30;99.90;;;;;;5092729;28;20207;-65
2022/08/01 11:50:33;;;;;;;1.48;0.50;;;24.20;99.90;;;;;;5090952;28;20200;-63
2022/08/01 11:53:21;;;;;;;0.50;0.50;;;24.20;99.90;;;;;;5091165;28;20224;-64
2022/08/01 11:56:13;;;;;;;0.80;0.80;;;24.40;99.90;;;;;;5093595;28;20241;-64
2022/08/01 11:59:04;;;;;;;0.40;0.40;;;25.10;99.90;;;;;;5092102;28;20223;-64
2022/08/01 12:02:02;;;;;;;3.55;3.25;;;25.30;99.90;;;;;;5091986;28;20224;-65
2022/08/01 12:04:57;;;;;;;0.55;0.50;;;25.80;99.90;;;;;;5090668;28;20211;-63
2022/08/01 12:07:51;;;;;;;3.75;0.73;;;25.90;99.90;;;;;;5072689;28;20262;-63
2022/08/01 12:10:39;;;;;;;0.40;0.40;;;26.10;99.90;;;;;;5072225;28;20196;-63
2022/08/01 12:13:41;;;;;;;0.45;0.45;;;26.10;99.90;;;;;;5071693;28;20232;-63
2022/08/01 12:16:29;;;;;;;0.40;0.40;;;26.10;99.90;;;;;;5071898;28;20200;-65
2022/08/01 12:19:22;;;;;;;0.40;0.40;;;26.20;99.90;;;;;;5071283;28;20216;-64
2022/08/01 12:22:12;;;;;;;0.40;0.40;;;26.40;99.90;;;;;;5075178;28;20609;-65
2022/08/01 12:25:08;;;;;;;0.40;0.40;;;26.40;99.90;;;;;;5075664;28;20208;-64
2022/08/01 12:28:01;;;;;;;0.40;0.40;;;26.60;99.90;;;;;;5075796;28;20568;-64
2022/08/01 12:30:50;;;;;;;0.40;0.40;;;26.70;99.90;;;;;;5074175;28;20228;-64
2022/08/01 12:33:38;;;;;;;0.50;0.50;;;26.50;99.90;;;;;;5074697;28;20473;-65
2022/08/01 12:36:29;;;;;;;0.70;0.70;;;26.20;99.90;;;;;;5076785;28;20467;-63
2022/08/01 12:39:17;;;;;;;0.70;0.70;;;25.90;99.90;;;;;;5074993;28;20221;-63
2022/08/01 12:42:10;;;;;;;0.40;0.40;;;25.50;99.90;;;;;;5075168;28;20216;-64
2022/08/01 12:44:58;;;;;;;0.50;0.50;;;25.30;99.90;;;;;;5075687;28;20196;-64
2022/08/01 12:47:48;;;;;;;0.50;0.50;;;25.20;99.90;;;;;;5076576;28;20196;-63
2022/08/01 12:50:38;;;;;;;0.50;0.50;;;25.30;99.90;;;;;;5076031;28;20236;-65
2022/08/01 12:53:27;;;;;;;0.75;0.75;;;25.70;99.90;;;;;;5075398;28;20615;-64
2022/08/01 12:56:33;;;;;;;1.17;1.17;;;25.90;99.90;;;;;;5074903;28;20266;-64
2022/08/01 12:59:24;;;;;;;0.75;0.75;;;26.40;99.90;;;;;;5075804;28;20221;-65
2022/08/01 13:02:13;;;;;;;0.40;0.40;;;26.50;99.90;;;;;;5075460;28;20577;-63
2022/08/01 13:05:01;;;;;;;0.85;0.70;;;26.80;99.90;;;;;;5079196;28;20203;-64
2022/08/01 13:07:51;;;;;;;0.80;0.80;;;27.10;99.90;;;;;;5095702;28;20579;-64
2022/08/01 13:10:39;;;;;;;0.60;0.60;;;26.70;99.90;;;;;;5094110;28;20623;-65
2022/08/01 13:13:39;;;;;;;0.50;0.50;;;26.30;99.90;;;;;;5094192;28;20277;-65
2022/08/01 13:16:29;;;;;;;0.57;0.55;;;26.40;99.90;;;;;;5094773;28;20672;-63
2022/08/01 13:19:44;;;;;;;1.85;0.65;;;26.60;99.90;;;;;;5094635;28;20308;-65
2022/08/01 13:22:33;;;;;;;2.25;0.60;;;26.50;99.90;;;;;;5095068;28;20227;-64
2022/08/01 13:25:21;;;;;;;0.40;0.40;;;26.20;99.90;;;;;;5095080;28;20196;-64
2022/08/01 13:28:16;;;;;;;0.40;0.40;;;26.10;99.90;;;;;;5096177;28;20196;-65
2022/08/01 13:31:06;;;;;;;0.40;0.40;;;26.30;99.90;;;;;;5093749;28;20697;-65
2022/08/01 13:33:56;;;;;;;0.40;0.40;;;27.30;99.90;;;;;;5094007;28;20192;-65
2022/08/01 13:36:48;;;;;;;0.40;0.40;;;28.40;99.90;;;;;;5094279;28;20203;-65
2022/08/01 13:39:43;;;;;;;0.50;0.50;;;29.00;99.90;;;;;;5093667;28;20303;-63
2022/08/01 13:42:31;;;;;;;0.60;0.60;;;29.70;99.90;;;;;;5093500;28;20696;-63
2022/08/01 13:45:20;;;;;;;0.57;0.57;;;30.20;99.90;;;;;;5092379;28;20203;-64
2022/08/01 13:48:09;;;;;;;0.40;0.40;;;29.70;99.90;;;;;;5093418;28;20192;-63
2022/08/01 13:51:07;;;;;;;0.40;0.40;;;29.00;99.90;;;;;;5093954;28;20300;-65
2022/08/01 13:54:09;;;;;;;0.40;0.40;;;28.60;99.90;;;;;;5094563;28;20206;-65
2022/08/01 13:56:57;;;;;;;0.50;0.50;;;28.40;99.90;;;;;;5093354;28;20207;-65
2022/08/01 13:59:45;;;;;;;0.40;0.40;;;28.30;99.90;;;;;;5092975;28;20212;-65
2022/08/01 14:02:34;;;;;;;0.40;0.40;;;28.20;99.90;;;;;;5092636;28;20231;-65
2022/08/01 14:05:22;;;;;;;0.40;0.40;;;28.20;99.90;;;;;;5086404;28;20200;-65
2022/08/01 14:08:11;;;;;;;0.40;0.40;;;28.60;99.90;;;;;;5072827;28;20564;-64
2022/08/01 14:11:01;;;;;;;0.50;0.50;;;28.40;99.90;;;;;;5072600;28;20291;-66
2022/08/01 14:13:54;;;;;;;0.50;0.50;;;28.00;99.90;;;;;;5072846;28;20279;-64
2022/08/01 14:16:44;;;;;;;0.40;0.40;;;27.40;99.90;;;;;;5072393;28;20242;-63
2022/08/01 14:19:32;;;;;;;0.40;0.40;;;27.10;99.90;;;;;;5072103;28;20224;-64
2022/08/01 14:22:26;;;;;;;0.40;0.40;;;27.50;99.90;;;;;;5073324;28;20213;-65
2022/08/01 14:25:17;;;;;;;0.50;0.50;;;27.60;99.90;;;;;;5074187;28;20197;-65
2022/08/01 14:28:27;;;;;;;0.40;0.40;;;27.20;99.90;;;;;;5073929;28;20302;-66
2022/08/01 14:31:16;;;;;;;0.57;0.57;;;26.70;99.90;;;;;;5072552;28;20578;-66
2022/08/01 14:34:04;;;;;;;0.40;0.40;;;26.80;99.90;;;;;;5073142;28;20200;-64
2022/08/01 14:36:53;;;;;;;0.40;0.40;;;27.00;99.90;;;;;;5073883;28;20558;-65
2022/08/01 14:39:44;;;;;;;0.57;0.57;;;27.50;99.90;;;;;;5072755;28;20728;-65
2022/08/01 14:42:43;;;;;;;0.40;0.40;;;27.80;99.90;;;;;;5072893;28;20798;-64
2022/08/01 14:45:32;;;;;;;0.60;0.60;;;27.90;99.90;;;;;;5073862;28;20232;-64
2022/08/01 14:48:20;;;;;;;0.40;0.40;;;27.80;99.90;;;;;;5072441;28;20205;-65
2022/08/01 14:51:09;;;;;;;0.40;0.40;;;27.90;99.90;;;;;;5072524;28;20246;-64
2022/08/01 14:53:57;;;;;;;0.40;0.40;;;29.10;99.90;;;;;;5070998;28;20580;-64
2022/08/01 14:56:46;;;;;;;0.40;0.40;;;31.00;99.90;;;;;;5070503;28;20204;-64